createdAt,value
2023-05-16T08:57:56.128Z,10.50
2023-05-16T09:00:25.193Z,10.60
2023-05-16T09:02:53.861Z,10.50
2023-05-16T09:05:23.528Z,10.40
2023-05-16T09:07:51.545Z,10.40
2023-05-16T09:10:19.567Z,10.50
2023-05-16T09:12:47.600Z,10.60
2023-05-16T09:15:21.097Z,10.70
2023-05-16T09:17:49.549Z,10.80
2023-05-16T09:20:19.445Z,10.60
2023-05-16T09:22:55.195Z,10.60
2023-05-16T09:25:30.265Z,10.60
2023-05-16T09:28:01.167Z,10.60
2023-05-16T09:30:35.445Z,10.70
2023-05-16T09:33:40.248Z,10.80
2023-05-16T09:36:09.218Z,10.70
2023-05-16T09:38:38.896Z,10.60
2023-05-16T09:41:07.160Z,10.70
2023-05-16T09:43:37.224Z,10.80
2023-05-16T09:46:07.418Z,10.70
2023-05-16T09:48:35.555Z,10.90
2023-05-16T09:51:07.133Z,10.80
2023-05-16T09:53:35.512Z,10.80
2023-05-16T09:56:05.510Z,10.80
2023-05-16T09:58:34.847Z,10.80
2023-05-16T10:01:03.486Z,10.80
2023-05-16T10:03:35.161Z,10.90
2023-05-16T10:06:04.116Z,11.10
2023-05-16T10:08:36.375Z,11.20
2023-05-16T10:11:05.832Z,11.20
2023-05-16T10:13:35.313Z,11.20
2023-05-16T10:16:07.657Z,11.40
2023-05-16T10:18:39.446Z,11.60
2023-05-16T10:21:11.963Z,11.60
2023-05-16T10:23:43.088Z,11.70
2023-05-16T10:26:14.304Z,11.90
2023-05-16T10:28:42.989Z,11.60
2023-05-16T10:31:12.680Z,11.70
2023-05-16T10:33:42.213Z,11.70
2023-05-16T10:36:11.266Z,11.60
2023-05-16T10:38:40.126Z,11.70
2023-05-16T10:41:08.550Z,11.70
2023-05-16T10:43:36.596Z,11.60
2023-05-16T10:46:06.095Z,11.80
2023-05-16T10:48:36.372Z,11.90
2023-05-16T10:51:28.156Z,11.90
2023-05-16T10:53:56.744Z,11.80
2023-05-16T10:56:26.010Z,11.90
2023-05-16T10:58:56.069Z,11.90
2023-05-16T11:01:25.622Z,11.90
2023-05-16T11:04:11.064Z,12.00
2023-05-16T11:06:50.587Z,12.00
2023-05-16T11:09:27.269Z,12.20
2023-05-16T11:12:03.913Z,12.40
2023-05-16T11:14:39.471Z,12.40
2023-05-16T11:17:12.700Z,12.80
2023-05-16T11:19:42.691Z,13.20
2023-05-16T11:22:16.605Z,13.00
2023-05-16T11:24:53.190Z,13.20
2023-05-16T11:27:23.804Z,13.40
2023-05-16T11:29:52.442Z,13.50
2023-05-16T11:32:22.917Z,13.60
2023-05-16T11:34:51.886Z,13.40
2023-05-16T11:37:21.789Z,13.50
2023-05-16T11:39:50.381Z,13.80
2023-05-16T11:42:18.997Z,14.30
2023-05-16T11:44:47.226Z,14.50
2023-05-16T11:47:15.564Z,14.60
2023-05-16T11:49:43.592Z,14.90
2023-05-16T11:52:11.646Z,14.80
2023-05-16T11:54:42.412Z,14.30
2023-05-16T11:57:13.688Z,14.70
2023-05-16T11:59:41.895Z,14.60
2023-05-16T12:02:10.977Z,14.50
2023-05-16T12:04:39.394Z,14.80
2023-05-16T12:07:07.546Z,14.70
2023-05-16T12:09:35.481Z,14.60
2023-05-16T12:12:06.908Z,14.80
2023-05-16T12:14:35.424Z,14.30
2023-05-16T12:17:04.682Z,14.60
2023-05-16T12:19:33.112Z,15.00
2023-05-16T12:22:01.191Z,15.00
2023-05-16T12:24:32.379Z,15.30
2023-05-16T12:27:00.495Z,15.20
2023-05-16T12:29:29.824Z,15.70
2023-05-16T12:31:58.948Z,15.60
2023-05-16T12:34:30.721Z,15.80
2023-05-16T12:37:01.530Z,15.50
2023-05-16T12:39:38.226Z,15.50
2023-05-16T12:42:07.365Z,15.40
2023-05-16T12:44:37.063Z,15.40
2023-05-16T12:47:05.464Z,15.60
2023-05-16T12:49:34.698Z,15.70
2023-05-16T12:52:05.818Z,15.60
2023-05-16T12:54:33.937Z,16.10
2023-05-16T12:57:01.991Z,16.20
2023-05-16T12:59:31.290Z,16.10
2023-05-16T13:02:00.806Z,16.20
2023-05-16T13:04:29.166Z,16.10
2023-05-16T13:06:59.697Z,15.90
2023-05-16T13:09:31.979Z,16.00
2023-05-16T13:12:01.248Z,16.20
2023-05-16T13:14:29.210Z,16.10
2023-05-16T13:16:57.140Z,16.10
2023-05-16T13:19:26.884Z,16.40
2023-05-16T13:21:55.118Z,16.00
2023-05-16T13:24:23.002Z,16.40
2023-05-16T13:26:53.067Z,16.60
2023-05-16T13:29:21.198Z,16.50
2023-05-16T13:31:49.312Z,16.60
2023-05-16T13:34:17.271Z,16.40
2023-05-16T13:36:54.021Z,16.40
2023-05-16T13:39:23.225Z,16.50
2023-05-16T13:41:51.524Z,16.30
2023-05-16T13:44:19.777Z,16.50
2023-05-16T13:46:47.826Z,16.50
2023-05-16T13:49:15.963Z,17.00
2023-05-16T13:51:44.194Z,16.80
2023-05-16T13:54:13.623Z,16.50
2023-05-16T13:56:41.603Z,16.20
2023-05-16T13:59:12.442Z,16.10
2023-05-16T14:01:43.418Z,16.60
2023-05-16T14:04:11.874Z,17.10
2023-05-16T14:06:39.847Z,17.10
2023-05-16T14:09:08.300Z,16.90
2023-05-16T14:11:37.624Z,16.90
2023-05-16T14:14:05.885Z,16.60
2023-05-16T14:16:33.916Z,16.90
2023-05-16T14:19:02.115Z,17.20
2023-05-16T14:21:30.168Z,17.70
2023-05-16T14:23:58.123Z,18.20
2023-05-16T14:26:26.613Z,16.50
2023-05-16T14:28:56.878Z,16.10
2023-05-16T14:31:24.888Z,16.00
2023-05-16T14:33:55.211Z,16.40
2023-05-16T14:36:23.115Z,16.20
2023-05-16T14:38:51.474Z,16.70
2023-05-16T14:41:20.135Z,16.90
2023-05-16T14:43:48.144Z,16.80
2023-05-16T14:46:17.465Z,17.30
2023-05-16T14:48:45.612Z,16.90
2023-05-16T14:51:13.566Z,15.80
2023-05-16T14:53:41.574Z,15.20
2023-05-16T14:56:09.783Z,15.10
2023-05-16T14:58:37.771Z,15.70
2023-05-16T15:01:05.768Z,16.30
2023-05-16T15:03:46.794Z,16.50
2023-05-16T15:06:19.027Z,16.90
2023-05-16T15:08:46.947Z,17.20
2023-05-16T15:11:15.010Z,17.10
2023-05-16T15:13:42.989Z,16.40
2023-05-16T15:16:11.192Z,16.40
2023-05-16T15:18:41.661Z,16.70
2023-05-16T15:21:09.926Z,16.40
2023-05-16T15:23:37.897Z,16.40
2023-05-16T15:26:06.428Z,16.20
2023-05-16T15:28:34.374Z,15.70
2023-05-16T15:31:02.292Z,16.20
2023-05-16T15:33:30.260Z,15.90
2023-05-16T15:35:59.607Z,16.20
2023-05-16T15:38:27.801Z,16.50
2023-05-16T15:41:12.206Z,16.20
2023-05-16T15:43:43.987Z,15.70
2023-05-16T15:46:12.043Z,15.40
2023-05-16T15:48:42.773Z,15.60
2023-05-16T15:51:13.193Z,15.60
2023-05-16T15:53:41.213Z,15.20
2023-05-16T15:56:10.250Z,15.10
2023-05-16T15:58:38.238Z,15.60
2023-05-16T16:01:06.334Z,16.10
2023-05-16T16:03:34.459Z,16.20
2023-05-16T16:06:02.443Z,16.50
2023-05-16T16:08:31.894Z,16.40
2023-05-16T16:11:00.091Z,16.90
2023-05-16T16:13:29.536Z,17.10
2023-05-16T16:15:57.977Z,16.60
2023-05-16T16:18:28.276Z,16.70
2023-05-16T16:20:59.131Z,16.90
2023-05-16T16:23:27.611Z,16.90
2023-05-16T16:25:57.104Z,16.40
2023-05-16T16:28:25.080Z,17.00
2023-05-16T16:30:53.552Z,17.20
2023-05-16T16:33:23.630Z,17.10
2023-05-16T16:35:55.666Z,16.70
2023-05-16T16:38:25.458Z,16.90
2023-05-16T16:40:55.815Z,17.20
2023-05-16T16:43:25.851Z,17.10
2023-05-16T16:45:53.897Z,16.80
2023-05-16T16:48:25.525Z,17.10
2023-05-16T16:50:54.332Z,17.30
2023-05-16T16:53:28.637Z,17.60
2023-05-16T16:55:56.899Z,17.90
2023-05-16T16:58:29.233Z,18.10
2023-05-16T17:00:57.553Z,18.10
2023-05-16T17:03:27.874Z,18.40
2023-05-16T17:05:56.085Z,19.00
2023-05-16T17:08:24.185Z,18.80
2023-05-16T17:11:01.325Z,18.50
2023-05-16T17:13:33.746Z,18.30
2023-05-16T17:16:02.112Z,18.90
2023-05-16T17:18:31.701Z,18.60
2023-05-16T17:21:02.121Z,18.30
2023-05-16T17:23:30.137Z,17.90
2023-05-16T17:25:58.083Z,17.80
2023-05-16T17:28:31.496Z,18.20
2023-05-16T17:31:00.862Z,18.80
2023-05-16T17:33:28.811Z,18.80
2023-05-16T17:35:57.033Z,18.00
2023-05-16T17:38:25.183Z,17.80
2023-05-16T17:40:53.222Z,17.50
2023-05-16T17:43:21.243Z,17.30
2023-05-16T17:45:53.850Z,17.40
2023-05-16T17:48:21.781Z,17.10
2023-05-16T17:50:50.079Z,16.10
2023-05-16T17:53:18.022Z,14.70
2023-05-16T17:55:46.327Z,14.20
2023-05-16T17:58:14.522Z,14.20
2023-05-16T18:00:42.580Z,14.00
2023-05-16T18:03:12.976Z,13.80
2023-05-16T18:05:44.309Z,13.80
2023-05-16T18:08:12.779Z,13.80
2023-05-16T18:10:50.961Z,13.70
2023-05-16T18:13:20.488Z,13.70
2023-05-16T18:16:05.561Z,13.70
2023-05-16T18:18:37.594Z,13.50
2023-05-16T18:21:06.193Z,13.60
2023-05-16T18:23:39.016Z,13.50
2023-05-16T18:26:07.033Z,13.50
2023-05-16T18:28:35.289Z,13.40
2023-05-16T18:31:04.254Z,13.30
2023-05-16T18:33:32.402Z,13.20
2023-05-16T18:36:01.751Z,13.20
2023-05-16T18:38:52.371Z,13.10
2023-05-16T18:41:51.482Z,13.10
2023-05-16T18:44:37.733Z,12.90
2023-05-16T18:47:18.012Z,12.90
2023-05-16T18:49:46.169Z,12.80
2023-05-16T18:52:15.898Z,12.60
2023-05-16T18:54:44.122Z,12.60
2023-05-16T18:57:12.964Z,12.50
2023-05-16T18:59:41.131Z,12.40
2023-05-16T19:02:09.532Z,12.30
2023-05-16T19:04:37.895Z,12.40
2023-05-16T19:07:07.959Z,12.30
2023-05-16T19:09:38.857Z,12.30
2023-05-16T19:12:07.822Z,12.20
2023-05-16T19:14:36.001Z,12.10
2023-05-16T19:17:04.708Z,12.00
2023-05-16T19:19:36.220Z,12.00
2023-05-16T19:22:04.858Z,11.80
2023-05-16T19:24:34.902Z,11.80
2023-05-16T19:27:04.503Z,11.80
2023-05-16T19:29:33.019Z,11.70
2023-05-16T19:32:01.707Z,11.70
2023-05-16T19:34:29.940Z,11.60
2023-05-16T19:36:57.998Z,11.50
2023-05-16T19:39:30.113Z,11.50
2023-05-16T19:42:06.311Z,11.40
2023-05-16T19:44:36.976Z,11.30
2023-05-16T19:47:05.500Z,11.20
2023-05-16T19:49:33.557Z,11.10
2023-05-16T19:52:02.962Z,10.90
2023-05-16T19:54:31.439Z,11.00
2023-05-16T19:56:59.398Z,11.00
2023-05-16T19:59:27.443Z,11.00
2023-05-16T20:01:56.819Z,10.90
2023-05-16T20:04:25.060Z,10.70
2023-05-16T20:06:53.146Z,10.70
2023-05-16T20:09:21.090Z,10.70
2023-05-16T20:11:49.709Z,10.70
2023-05-16T20:14:17.763Z,10.60
2023-05-16T20:16:46.015Z,10.60
2023-05-16T20:19:15.570Z,10.60
2023-05-16T20:21:43.626Z,10.50
2023-05-16T20:24:11.742Z,10.60
2023-05-16T20:26:39.823Z,10.60
2023-05-16T20:29:13.354Z,10.60
2023-05-16T20:31:43.773Z,10.40
2023-05-16T20:34:11.907Z,10.50
2023-05-16T20:36:41.289Z,10.40
2023-05-16T20:39:09.201Z,10.40
2023-05-16T20:41:37.151Z,10.30
2023-05-16T20:44:07.413Z,10.20
2023-05-16T20:46:36.855Z,10.10
2023-05-16T20:49:04.863Z,10.00
2023-05-16T20:51:33.921Z,10.00
2023-05-16T20:54:06.412Z,10.10
2023-05-16T20:56:34.390Z,10.10
2023-05-16T20:59:02.439Z,10.10
2023-05-16T21:01:30.983Z,10.20
2023-05-16T21:04:04.606Z,10.10
2023-05-16T21:06:32.654Z,10.20
2023-05-16T21:09:00.809Z,10.10
2023-05-16T21:11:32.689Z,10.10
2023-05-16T21:14:01.140Z,10.10
2023-05-16T21:16:29.982Z,9.90
2023-05-16T21:18:58.252Z,10.00
2023-05-16T21:21:26.516Z,10.00
2023-05-16T21:23:55.911Z,10.00
2023-05-16T21:26:23.998Z,9.90
2023-05-16T21:28:55.384Z,9.90
2023-05-16T21:31:23.749Z,9.80
2023-05-16T21:33:52.547Z,9.80
2023-05-16T21:36:20.832Z,9.70
2023-05-16T21:38:48.977Z,9.60
2023-05-16T21:41:18.193Z,9.50
2023-05-16T21:43:46.230Z,9.60
2023-05-16T21:46:15.725Z,9.50
2023-05-16T21:48:43.770Z,9.40
2023-05-16T21:51:11.881Z,9.40
2023-05-16T21:53:39.840Z,9.30
2023-05-16T21:56:07.919Z,9.20
2023-05-16T21:58:35.948Z,9.30
2023-05-16T22:01:03.914Z,9.30
2023-05-16T22:03:33.307Z,9.20
2023-05-16T22:06:01.368Z,9.20
2023-05-16T22:08:29.292Z,9.20
2023-05-16T22:10:57.251Z,9.20
2023-05-16T22:13:25.226Z,9.20
2023-05-16T22:16:03.881Z,9.20
2023-05-16T22:18:34.507Z,9.10
2023-05-16T22:21:02.752Z,9.10
2023-05-16T22:23:31.894Z,9.00
2023-05-16T22:26:00.057Z,9.20
2023-05-16T22:28:28.408Z,9.20
2023-05-16T22:30:56.791Z,9.20
2023-05-16T22:33:25.689Z,9.20
2023-05-16T22:35:55.184Z,9.30
2023-05-16T22:38:23.182Z,9.40
2023-05-16T22:40:51.214Z,9.50
2023-05-16T22:43:19.489Z,9.50
2023-05-16T22:45:47.619Z,9.50
2023-05-16T22:48:15.765Z,9.50
2023-05-16T22:50:44.088Z,9.50
2023-05-16T22:53:13.664Z,9.60
2023-05-16T22:55:41.899Z,9.60
2023-05-16T22:58:09.878Z,9.50
2023-05-16T23:00:38.213Z,9.40
2023-05-16T23:03:06.556Z,9.40
2023-05-16T23:05:34.698Z,9.40
2023-05-16T23:08:03.187Z,9.30
2023-05-16T23:10:32.975Z,9.30
2023-05-16T23:13:01.085Z,9.30
2023-05-16T23:15:29.386Z,9.30
2023-05-16T23:17:57.696Z,9.20
2023-05-16T23:20:25.998Z,9.10
2023-05-16T23:22:54.072Z,9.00
2023-05-16T23:25:22.094Z,9.00
2023-05-16T23:27:51.475Z,8.90
2023-05-16T23:30:19.549Z,8.90
2023-05-16T23:32:49.598Z,8.80
2023-05-16T23:35:17.487Z,8.80
2023-05-16T23:37:45.495Z,8.70
2023-05-16T23:40:14.803Z,8.60
2023-05-16T23:42:42.879Z,8.70
2023-05-16T23:45:13.106Z,8.60
2023-05-16T23:47:41.063Z,8.60
2023-05-16T23:50:09.887Z,8.60
2023-05-16T23:52:37.855Z,8.50
2023-05-16T23:55:06.405Z,8.50
2023-05-16T23:57:34.370Z,8.60
